Delaware County Johnson Field
KMIE : now visible

Airfield :











YOU CAN JOIN US ON...

 
LOGIN :

Register | Disclaimer

   EN    FR    IT 

 









Legend :    VFR   Marginal VFR   IFR   Intensive IFR   Very Intensive IFR
Visi :
Ceiling :
>= 8 km
>= 3000ft
5 to 8 km
1000 to 3000 ft
1500m to 5 km
500 to 1000 ft
800 to 1500m
200 to 500 ft
< 800m
< 200 ft
Symbols :   Thunderstorms  Fog  Heavy snow  Heavy precipitations  Wind > 20 kt






- Airport Elevation : 937 ft
- IATA code : MIE


KMIE - Delaware County Johnson Field

CURRENT METAR :
  • 181053Z 18013G23KT 6SM -RA SCT010 OVC034 02/M01 A2994 RMK AO2 PK WND 18027/1031 RAB35FZRAE35 SLP143 P0002 I1000 T00221006

EXPIRED METARs :
  • 181041Z AUTO 18013G22KT 6SM -RA BR SCT011 BKN024 OVC033 02/M01 A2995 RMK AO2 PK WND 18027/1031 RAB35FZRAE35 P0002 I1000 T00171006
  • 181014Z AUTO 17011G22KT 4SM -FZRA SCT011 BKN018 OVC030 02/M01 A2997 RMK AO2 PRESFR P0001 I1000 T00171011
  • 180957Z AUTO 17012G23KT 2 1/2SM FZRA FEW009 BKN014 OVC035 02/M01 A3000 RMK AO2 PRESFR P0000 I1000 T00171011
  • 180936Z AUTO 18014G24KT 3SM FZRA FEW016 BKN026 OVC035 02/M01 A3003 RMK AO2 RAE13FZRAB13 P0006 I1003 T00171011
  • 180919Z AUTO 18013G22KT 4SM -FZRA OVC028 02/M01 A3004 RMK AO2 RAE13FZRAB13 P0003 I1001 T00171011

TAF N/A



MET'MAP, your aeronautical weather chart ! - Copyright ORBIFLY December 2007 - Disclaimer

ORBIFLY MET'MAP TEAM :

Programming & Development : Alexandra Zaïnal
Concept & original design : Baudouin d'Aumeries
Assistance for programming : Marc-Olivier Méhu
Technical & hardware support : Manuel Goepfert

Contact : metmap@orbifly.com




SOURCES & CREDITS :

   NOAA       Earth
Advisory